createdAt,value
2023-05-14T00:01:14.046Z,97266.44
2023-05-14T00:03:42.057Z,97255.38
2023-05-14T00:06:12.175Z,97255.97
2023-05-14T00:08:40.356Z,97249.44
2023-05-14T00:11:09.682Z,97247.59
2023-05-14T00:13:37.861Z,97249.63
2023-05-14T00:16:06.601Z,97248.53
2023-05-14T00:18:34.544Z,97241.00
2023-05-14T00:21:02.835Z,97239.97
2023-05-14T00:23:32.333Z,97235.41
2023-05-14T00:26:00.564Z,97233.03
2023-05-14T00:28:28.572Z,97236.56
2023-05-14T00:30:57.351Z,97236.34
2023-05-14T00:33:25.711Z,97235.81
2023-05-14T00:35:54.241Z,97235.72
2023-05-14T00:38:24.309Z,97230.44
2023-05-14T00:40:53.841Z,97228.34
2023-05-14T00:43:24.344Z,97234.56
2023-05-14T00:45:53.943Z,97231.16
2023-05-14T00:48:23.071Z,97228.88
2023-05-14T00:50:53.150Z,97234.56
2023-05-14T00:53:22.242Z,97236.25
2023-05-14T00:55:51.177Z,97239.66
2023-05-14T00:58:21.322Z,97230.44
2023-05-14T01:00:50.185Z,97235.03
2023-05-14T01:03:18.363Z,97230.44
2023-05-14T01:05:58.670Z,97223.19
2023-05-14T01:08:34.172Z,97226.22
2023-05-14T01:11:08.215Z,97218.00
2023-05-14T01:13:55.373Z,97226.06
2023-05-14T01:16:28.332Z,97222.78
2023-05-14T01:18:58.415Z,97223.19
2023-05-14T01:21:37.682Z,97215.81
2023-05-14T01:24:06.387Z,97219.97
2023-05-14T01:26:34.835Z,97217.72
2023-05-14T01:29:12.530Z,97222.66
2023-05-14T01:31:44.391Z,97215.81
2023-05-14T01:34:13.849Z,97215.53
2023-05-14T01:36:45.621Z,97215.09
2023-05-14T01:39:16.806Z,97217.09
2023-05-14T01:41:46.390Z,97217.47
2023-05-14T01:44:14.565Z,97213.75
2023-05-14T01:46:42.954Z,97212.94
2023-05-14T01:49:11.044Z,97208.88
2023-05-14T01:51:39.295Z,97205.38
2023-05-14T01:54:08.842Z,97203.09
2023-05-14T01:56:37.028Z,97197.31
2023-05-14T01:59:05.363Z,97206.28
2023-05-14T02:01:34.173Z,97200.63
2023-05-14T02:04:02.779Z,97194.81
2023-05-14T02:06:31.706Z,97188.97
2023-05-14T02:08:59.821Z,97194.66
2023-05-14T02:11:29.222Z,97192.66
2023-05-14T02:13:57.194Z,97194.34
2023-05-14T02:16:25.906Z,97183.72
2023-05-14T02:18:54.685Z,97188.78
2023-05-14T02:21:23.225Z,97187.59
2023-05-14T02:23:51.636Z,97190.59
2023-05-14T02:26:20.306Z,97188.06
2023-05-14T02:28:49.916Z,97184.44
2023-05-14T02:31:19.576Z,97183.63
2023-05-14T02:33:47.978Z,97181.41
2023-05-14T02:36:16.127Z,97180.00
2023-05-14T02:38:44.748Z,97175.97
2023-05-14T02:41:12.886Z,97183.31
2023-05-14T02:43:41.382Z,97186.22
2023-05-14T02:46:10.911Z,97187.91
2023-05-14T02:48:39.050Z,97190.69
2023-05-14T02:51:09.514Z,97185.28
2023-05-14T02:53:37.569Z,97183.91
2023-05-14T02:56:06.828Z,97183.34
2023-05-14T02:58:35.693Z,97184.63
2023-05-14T03:01:04.079Z,97176.16
2023-05-14T03:03:34.370Z,97178.72
2023-05-14T03:06:02.850Z,97185.72
2023-05-14T03:08:31.899Z,97179.56
2023-05-14T03:11:00.192Z,97182.25
2023-05-14T03:13:28.506Z,97176.97
2023-05-14T03:15:58.152Z,97177.66
2023-05-14T03:18:28.694Z,97174.78
2023-05-14T03:20:58.432Z,97174.47
2023-05-14T03:23:31.210Z,97175.84
2023-05-14T03:25:59.505Z,97174.97
2023-05-14T03:28:27.728Z,97176.31
2023-05-14T03:30:55.968Z,97174.22
2023-05-14T03:33:25.053Z,97158.19
2023-05-14T03:35:53.717Z,97159.41
2023-05-14T03:38:24.228Z,97157.75
2023-05-14T03:40:52.782Z,97157.66
2023-05-14T03:43:20.900Z,97158.28
2023-05-14T03:45:52.706Z,97158.09
2023-05-14T03:48:21.473Z,97163.38
2023-05-14T03:50:50.053Z,97161.66
2023-05-14T03:53:18.398Z,97161.34
2023-05-14T03:55:49.203Z,97158.22
2023-05-14T03:58:19.767Z,97161.78
2023-05-14T04:00:47.815Z,97158.75
2023-05-14T04:03:16.354Z,97161.88
2023-05-14T04:05:44.486Z,97161.06
2023-05-14T04:08:12.814Z,97164.03
2023-05-14T04:10:40.866Z,97153.50
2023-05-14T04:13:11.273Z,97163.94
2023-05-14T04:15:41.311Z,97155.03
2023-05-14T04:18:09.337Z,97155.88
2023-05-14T04:20:38.052Z,97155.34
2023-05-14T04:23:06.680Z,97156.78
2023-05-14T04:25:34.873Z,97158.34
2023-05-14T04:28:02.965Z,97153.56
2023-05-14T04:30:32.895Z,97152.72
2023-05-14T04:33:01.416Z,97145.03
2023-05-14T04:35:29.881Z,97141.38
2023-05-14T04:37:58.676Z,97147.81
2023-05-14T04:40:27.084Z,97150.84
2023-05-14T04:42:55.722Z,97144.44
2023-05-14T04:45:24.003Z,97139.97
2023-05-14T04:47:54.243Z,97137.66
2023-05-14T04:50:26.907Z,97139.50
2023-05-14T04:52:55.915Z,97140.69
2023-05-14T04:55:24.318Z,97133.88
2023-05-14T04:57:52.899Z,97129.97
2023-05-14T05:00:22.477Z,97136.00
2023-05-14T05:02:50.841Z,97127.38
2023-05-14T05:05:20.768Z,97123.44
2023-05-14T05:07:49.226Z,97123.84
2023-05-14T05:10:17.655Z,97125.50
2023-05-14T05:12:45.700Z,97122.63
2023-05-14T05:15:14.152Z,97120.16
2023-05-14T05:17:43.050Z,97122.63
2023-05-14T05:20:12.253Z,97122.78
2023-05-14T05:22:41.672Z,97119.47
2023-05-14T05:25:12.491Z,97115.63
2023-05-14T05:27:40.757Z,97120.91
2023-05-14T05:30:10.118Z,97113.53
2023-05-14T05:32:39.081Z,97111.25
2023-05-14T05:35:08.445Z,97112.66
2023-05-14T05:37:36.971Z,97108.47
2023-05-14T05:40:09.268Z,97110.44
2023-05-14T05:42:37.486Z,97106.31
2023-05-14T05:45:07.585Z,97104.03
2023-05-14T05:47:35.700Z,97110.50
2023-05-14T05:50:03.952Z,97104.47
2023-05-14T05:52:32.455Z,97107.78
2023-05-14T05:55:01.410Z,97101.63
2023-05-14T05:57:31.109Z,97099.84
2023-05-14T05:59:59.310Z,97096.81
2023-05-14T06:02:27.669Z,97099.16
2023-05-14T06:04:55.991Z,97106.28
2023-05-14T06:07:24.425Z,97104.03
2023-05-14T06:09:52.644Z,97098.03
2023-05-14T06:12:21.941Z,97107.31
2023-05-14T06:14:51.625Z,97095.94
2023-05-14T06:17:19.836Z,97103.94
2023-05-14T06:19:48.250Z,97098.66
2023-05-14T06:22:16.475Z,97106.84
2023-05-14T06:24:45.028Z,97103.53
2023-05-14T06:27:13.490Z,97100.81
2023-05-14T06:29:41.917Z,97100.25
2023-05-14T06:32:15.941Z,97100.31
2023-05-14T06:34:44.498Z,97096.00
2023-05-14T06:37:12.825Z,97095.56
2023-05-14T06:39:46.978Z,97095.28
2023-05-14T06:42:15.927Z,97096.72
2023-05-14T06:44:44.619Z,97101.72
2023-05-14T06:47:14.266Z,97098.81
2023-05-14T06:49:46.035Z,97094.84
2023-05-14T06:52:14.252Z,97098.66
2023-05-14T06:54:42.351Z,97096.72
2023-05-14T06:57:10.917Z,97099.31
2023-05-14T06:59:39.337Z,97095.13
2023-05-14T07:02:08.737Z,97090.53
2023-05-14T07:04:38.638Z,97075.47
2023-05-14T07:07:07.153Z,97087.19
2023-05-14T07:09:35.273Z,97080.25
2023-05-14T07:12:03.723Z,97081.78
2023-05-14T07:14:32.776Z,97081.50
2023-05-14T07:17:01.691Z,97085.50
2023-05-14T07:19:30.377Z,97076.81
2023-05-14T07:22:00.388Z,97078.09
2023-05-14T07:24:29.015Z,97079.09
2023-05-14T07:26:57.784Z,97084.72
2023-05-14T07:29:26.174Z,97085.84
2023-05-14T07:31:54.404Z,97079.13
2023-05-14T07:34:25.888Z,97080.19
2023-05-14T07:36:54.592Z,97088.31
2023-05-14T07:39:24.199Z,97076.53
2023-05-14T07:41:54.814Z,97082.06
2023-05-14T07:44:22.795Z,97075.44
2023-05-14T07:46:50.789Z,97071.47
2023-05-14T07:49:19.155Z,97069.25
2023-05-14T07:51:47.700Z,97073.59
2023-05-14T07:54:16.306Z,97065.06
2023-05-14T07:56:46.138Z,97068.88
2023-05-14T07:59:14.391Z,97068.69
2023-05-14T08:01:43.157Z,97067.81
2023-05-14T08:04:12.299Z,97066.75
2023-05-14T08:06:40.951Z,97066.94
2023-05-14T08:09:09.841Z,97071.47
2023-05-14T08:11:39.233Z,97065.81
2023-05-14T08:14:09.148Z,97067.03
2023-05-14T08:16:37.389Z,97067.75
2023-05-14T08:19:06.376Z,97062.34
2023-05-14T08:21:34.900Z,97065.41
2023-05-14T08:24:03.258Z,97061.50
2023-05-14T08:26:31.501Z,97062.25
2023-05-14T08:29:00.320Z,97067.06
2023-05-14T08:31:30.147Z,97060.94
2023-05-14T08:33:58.631Z,97061.50
2023-05-14T08:36:27.296Z,97064.72
2023-05-14T08:38:56.698Z,97058.66
2023-05-14T08:41:25.070Z,97059.22
2023-05-14T08:44:04.234Z,97045.09
2023-05-14T08:46:35.040Z,97049.06
2023-05-14T08:49:12.871Z,97052.50
2023-05-14T08:51:41.529Z,97052.44
2023-05-14T08:54:10.100Z,97047.34
2023-05-14T08:56:40.230Z,97048.69
2023-05-14T08:59:08.432Z,97044.09
2023-05-14T09:01:39.889Z,97047.28
2023-05-14T09:04:09.712Z,97048.81
2023-05-14T09:06:38.963Z,97046.03
2023-05-14T09:09:07.274Z,97038.69
2023-05-14T09:11:35.612Z,97040.66
2023-05-14T09:14:04.341Z,97038.66
2023-05-14T09:16:33.046Z,97038.34
2023-05-14T09:19:04.163Z,97036.97
2023-05-14T09:21:33.591Z,97032.75
2023-05-14T09:24:02.665Z,97028.94
2023-05-14T09:26:34.479Z,97027.78
2023-05-14T09:29:04.333Z,97023.78
2023-05-14T09:31:33.969Z,97023.34
2023-05-14T09:34:05.017Z,97024.34
2023-05-14T09:36:35.657Z,97023.56
2023-05-14T09:39:05.414Z,97020.56
2023-05-14T09:41:33.434Z,97012.81
2023-05-14T09:44:03.022Z,97016.31
2023-05-14T09:46:32.331Z,97017.09
2023-05-14T09:49:00.835Z,97006.97
2023-05-14T09:51:33.293Z,96996.75
2023-05-14T09:54:02.183Z,96998.81
2023-05-14T09:56:30.882Z,96997.44
2023-05-14T09:58:59.997Z,96987.53
2023-05-14T10:01:30.055Z,96988.00
2023-05-14T10:04:00.606Z,96982.44
2023-05-14T10:06:32.198Z,96969.63
2023-05-14T10:09:04.045Z,96977.03
2023-05-14T10:11:34.422Z,96969.69
2023-05-14T10:14:07.710Z,96962.78
2023-05-14T10:16:39.548Z,96958.94
2023-05-14T10:19:11.241Z,96962.72
2023-05-14T10:21:42.122Z,96959.41
2023-05-14T10:24:13.059Z,96958.19
2023-05-14T10:26:42.678Z,96945.22
2023-05-14T10:29:11.512Z,96951.63
2023-05-14T10:31:49.995Z,96951.88
2023-05-14T10:34:37.957Z,96942.78
2023-05-14T10:37:07.670Z,96937.94
2023-05-14T10:39:46.403Z,96932.22
2023-05-14T10:42:18.396Z,96932.41
2023-05-14T10:44:52.470Z,96939.19
2023-05-14T10:47:21.461Z,96937.03
2023-05-14T10:49:50.676Z,96930.06
2023-05-14T10:52:22.660Z,96933.50
2023-05-14T10:54:54.406Z,96936.75
2023-05-14T10:57:24.756Z,96927.47
2023-05-14T10:59:58.906Z,96924.69
2023-05-14T11:02:30.376Z,96912.56
2023-05-14T11:05:03.807Z,96927.53
2023-05-14T11:07:33.867Z,96909.94
2023-05-14T11:10:07.000Z,96916.72
2023-05-14T11:12:36.770Z,96915.53
2023-05-14T11:15:07.754Z,96919.75
2023-05-14T11:17:37.107Z,96915.03
2023-05-14T11:20:07.334Z,96923.06
2023-05-14T11:22:35.666Z,96914.31
2023-05-14T11:25:06.849Z,96915.41
2023-05-14T11:27:36.012Z,96907.44
2023-05-14T11:30:05.626Z,96903.25
2023-05-14T11:32:36.117Z,96898.97
2023-05-14T11:35:05.011Z,96899.69
2023-05-14T11:37:32.970Z,96896.47
2023-05-14T11:40:02.631Z,96899.50
2023-05-14T11:42:32.988Z,96898.88
2023-05-14T11:45:01.408Z,96892.78
2023-05-14T11:47:31.062Z,96891.31
2023-05-14T11:50:00.692Z,96890.72
2023-05-14T11:52:29.198Z,96889.31
2023-05-14T11:54:57.710Z,96888.31
2023-05-14T11:57:26.435Z,96889.78
2023-05-14T11:59:59.014Z,96885.16
2023-05-14T12:02:29.176Z,96891.19
2023-05-14T12:04:57.892Z,96878.66
2023-05-14T12:07:30.884Z,96884.53
2023-05-14T12:10:02.616Z,96884.06
2023-05-14T12:12:36.776Z,96871.94
2023-05-14T12:15:14.231Z,96872.56
2023-05-14T12:17:42.365Z,96878.44
2023-05-14T12:20:20.794Z,96872.63
2023-05-14T12:22:49.097Z,96866.28
2023-05-14T12:25:17.516Z,96863.06
2023-05-14T12:27:46.718Z,96867.34
2023-05-14T12:30:34.303Z,96868.66
2023-05-14T12:33:02.619Z,96868.41
2023-05-14T12:35:32.484Z,96859.22
2023-05-14T12:38:00.706Z,96860.44
2023-05-14T12:40:28.976Z,96858.34
2023-05-14T12:42:57.109Z,96859.13
2023-05-14T12:45:26.920Z,96855.22
2023-05-14T12:47:56.183Z,96857.22
2023-05-14T12:50:26.156Z,96855.25
2023-05-14T12:52:54.817Z,96850.97
2023-05-14T12:55:24.577Z,96854.22
2023-05-14T12:57:52.815Z,96851.22
2023-05-14T13:00:21.429Z,96849.91
2023-05-14T13:02:51.418Z,96844.09
2023-05-14T13:05:19.879Z,96847.94
2023-05-14T13:07:47.934Z,96849.69
2023-05-14T13:10:18.710Z,96849.91
2023-05-14T13:12:47.468Z,96846.28
2023-05-14T13:15:16.030Z,96852.84
2023-05-14T13:17:44.472Z,96842.56
2023-05-14T13:20:15.414Z,96842.56
2023-05-14T13:22:43.767Z,96835.97
2023-05-14T13:25:11.920Z,96836.16
2023-05-14T13:27:41.126Z,96833.53
2023-05-14T13:30:10.067Z,96830.31
2023-05-14T13:32:40.764Z,96833.09
2023-05-14T13:35:10.773Z,96827.44
2023-05-14T13:37:41.090Z,96817.63
2023-05-14T13:40:11.132Z,96814.47
2023-05-14T13:42:40.756Z,96811.34
2023-05-14T13:45:09.973Z,96813.19
2023-05-14T13:47:38.884Z,96817.31
2023-05-14T13:50:09.351Z,96813.94
2023-05-14T13:52:39.148Z,96806.72
2023-05-14T13:55:12.219Z,96809.47
2023-05-14T13:57:41.887Z,96811.59
2023-05-14T14:00:11.191Z,96804.28
2023-05-14T14:02:40.132Z,96803.75
2023-05-14T14:05:09.319Z,96802.47
2023-05-14T14:07:37.653Z,96795.13
2023-05-14T14:10:06.608Z,96793.69
2023-05-14T14:12:36.750Z,96790.50
2023-05-14T14:15:07.305Z,96797.59
2023-05-14T14:17:36.930Z,96784.06
2023-05-14T14:20:06.621Z,96776.41
2023-05-14T14:22:34.898Z,96780.41
2023-05-14T14:25:03.454Z,96784.41
2023-05-14T14:27:34.107Z,96786.03
2023-05-14T14:30:04.355Z,96782.78
2023-05-14T14:32:33.580Z,96784.03
2023-05-14T14:35:01.686Z,96775.91
2023-05-14T14:37:29.858Z,96778.88
2023-05-14T14:39:58.489Z,96775.34
2023-05-14T14:42:26.733Z,96776.25
2023-05-14T14:44:54.785Z,96771.47
2023-05-14T14:47:24.692Z,96767.56
2023-05-14T14:49:55.033Z,96766.25
2023-05-14T14:52:23.523Z,96764.81
2023-05-14T14:54:51.923Z,96769.03
2023-05-14T14:57:20.189Z,96764.88
2023-05-14T14:59:48.792Z,96773.03
2023-05-14T15:02:17.266Z,96768.97
2023-05-14T15:04:46.746Z,96771.31
2023-05-14T15:07:17.523Z,96766.09
2023-05-14T15:09:45.782Z,96766.38
2023-05-14T15:12:14.293Z,96766.22
2023-05-14T15:14:42.596Z,96765.41
2023-05-14T15:17:11.115Z,96754.88
2023-05-14T15:19:39.443Z,96761.69
2023-05-14T15:22:08.854Z,96761.03
2023-05-14T15:24:37.640Z,96759.56
2023-05-14T15:27:06.108Z,96759.41
2023-05-14T15:29:34.515Z,96753.78
2023-05-14T15:32:03.622Z,96760.84
2023-05-14T15:34:31.674Z,96757.25
2023-05-14T15:36:59.855Z,96753.06
2023-05-14T15:39:32.935Z,96760.31
2023-05-14T15:42:01.509Z,96753.97
2023-05-14T15:44:29.977Z,96754.72
2023-05-14T15:46:58.240Z,96754.50
2023-05-14T15:49:26.644Z,96748.72
2023-05-14T15:51:55.838Z,96748.56
2023-05-14T15:54:26.286Z,96752.47
2023-05-14T15:56:57.192Z,96745.31
2023-05-14T15:59:25.671Z,96743.00
2023-05-14T16:01:53.893Z,96746.50
2023-05-14T16:04:22.437Z,96742.63
2023-05-14T16:06:50.705Z,96744.06
2023-05-14T16:09:19.930Z,96742.22
2023-05-14T16:11:48.850Z,96740.16
2023-05-14T16:14:18.666Z,96742.06
2023-05-14T16:16:47.364Z,96743.59
2023-05-14T16:19:16.069Z,96739.50
2023-05-14T16:21:45.054Z,96738.19
2023-05-14T16:24:13.846Z,96741.47
2023-05-14T16:36:09.050Z,96730.28
2023-05-14T16:38:44.615Z,96738.47
2023-05-14T16:41:21.687Z,96727.03
2023-05-14T16:43:51.168Z,96727.66
2023-05-14T16:46:20.363Z,96724.13
2023-05-14T16:48:50.691Z,96727.22
2023-05-14T16:51:20.342Z,96726.72
2023-05-14T16:53:48.689Z,96718.69
2023-05-14T16:56:17.036Z,96723.44
2023-05-14T16:58:45.301Z,96728.22
2023-05-14T17:01:13.841Z,96728.50
2023-05-14T17:03:42.168Z,96721.09
2023-05-14T17:06:11.468Z,96721.88
2023-05-14T17:08:40.975Z,96721.59
2023-05-14T17:11:09.738Z,96718.81
2023-05-14T17:13:37.682Z,96723.59
2023-05-14T17:16:05.986Z,96720.16
2023-05-14T17:18:34.226Z,96727.72
2023-05-14T17:21:03.424Z,96730.03
2023-05-14T17:23:31.809Z,96727.72
2023-05-14T17:26:01.458Z,96730.03
2023-05-14T17:28:30.098Z,96734.56
2023-05-14T17:30:58.474Z,96728.16
2023-05-14T17:33:26.669Z,96734.06
2023-05-14T17:35:54.892Z,96726.16
2023-05-14T17:38:23.187Z,96727.13
2023-05-14T17:40:51.511Z,96729.91
2023-05-14T17:43:21.168Z,96724.53
2023-05-14T17:45:54.560Z,96721.69
2023-05-14T17:48:23.975Z,96721.53
2023-05-14T17:50:55.889Z,96718.88
2023-05-14T17:53:24.061Z,96724.41
2023-05-14T17:55:52.503Z,96725.69
2023-05-14T17:58:22.047Z,96721.63
2023-05-14T18:00:50.832Z,96725.81
2023-05-14T18:03:20.417Z,96731.19
2023-05-14T18:05:48.627Z,96727.41
2023-05-14T18:08:16.999Z,96726.56
2023-05-14T18:10:45.597Z,96729.03
2023-05-14T18:13:14.222Z,96726.41
2023-05-14T18:19:26.391Z,96725.69
2023-05-14T18:21:55.646Z,96723.53
2023-05-14T18:24:23.935Z,96734.66
2023-05-14T18:26:52.316Z,96728.78
2023-05-14T18:29:20.657Z,96726.59
2023-05-14T18:31:50.238Z,96736.13
2023-05-14T18:34:18.500Z,96735.56
2023-05-14T18:36:47.486Z,96737.97
2023-05-14T18:39:15.723Z,96741.69
2023-05-14T18:41:43.752Z,96748.13
2023-05-14T18:44:11.922Z,96742.53
2023-05-14T18:46:40.416Z,96740.66
2023-05-14T18:49:09.850Z,96741.94
2023-05-14T18:51:38.170Z,96744.16
2023-05-14T18:54:06.290Z,96743.91
2023-05-14T18:56:35.021Z,96743.38
2023-05-14T18:59:04.382Z,96739.56
2023-05-14T19:01:33.974Z,96740.31
2023-05-14T19:04:04.585Z,96735.00
2023-05-14T19:06:34.814Z,96747.56
2023-05-14T19:09:02.931Z,96755.34
2023-05-14T19:11:31.198Z,96750.91
2023-05-14T19:14:00.048Z,96750.47
2023-05-14T19:16:28.417Z,96744.38
2023-05-14T19:18:56.547Z,96746.44
2023-05-14T19:21:24.645Z,96742.66
2023-05-14T19:23:55.204Z,96751.09
2023-05-14T19:26:23.347Z,96740.72
2023-05-14T19:28:52.786Z,96741.00
2023-05-14T19:31:20.957Z,96735.03
2023-05-14T19:33:49.089Z,96736.81
2023-05-14T19:36:17.327Z,96735.63
2023-05-14T19:38:45.738Z,96733.03
2023-05-14T19:41:15.775Z,96735.84
2023-05-14T19:43:43.781Z,96724.84
2023-05-14T19:46:11.939Z,96722.78
2023-05-14T19:48:41.191Z,96720.97
2023-05-14T19:51:09.250Z,96715.28
2023-05-14T19:54:44.966Z,96717.53
2023-05-14T19:57:15.261Z,96708.28
2023-05-14T19:59:44.537Z,96700.16
2023-05-14T20:02:18.546Z,96699.19
2023-05-14T20:09:36.866Z,96683.97
2023-05-14T20:12:06.028Z,96680.97
2023-05-14T20:14:36.002Z,96678.50
2023-05-14T20:17:04.707Z,96669.78
2023-05-14T20:19:33.473Z,96667.69
2023-05-14T20:22:01.883Z,96673.19
2023-05-14T20:24:30.138Z,96665.53
2023-05-14T20:26:58.844Z,96665.44
2023-05-14T20:29:27.300Z,96659.31
2023-05-14T20:31:57.285Z,96651.09
2023-05-14T20:34:25.701Z,96654.72
2023-05-14T20:36:58.699Z,96647.19
2023-05-14T20:39:27.299Z,96637.19
2023-05-14T20:41:55.547Z,96636.50
2023-05-14T20:44:23.714Z,96632.28
2023-05-14T20:46:52.910Z,96631.59
2023-05-14T20:49:22.658Z,96631.72
2023-05-14T20:51:50.983Z,96624.34
2023-05-14T20:54:19.400Z,96617.63
2023-05-14T20:56:47.813Z,96621.59
2023-05-14T20:59:16.249Z,96616.78
2023-05-14T21:01:44.990Z,96607.44
2023-05-14T21:04:13.831Z,96607.88
2023-05-14T21:06:43.971Z,96609.94
2023-05-14T21:09:12.654Z,96600.31
2023-05-14T21:11:41.640Z,96605.53
2023-05-14T21:14:10.086Z,96592.97
2023-05-14T21:16:38.404Z,96595.13
2023-05-14T21:19:07.210Z,96594.28
2023-05-14T21:21:35.738Z,96596.06
2023-05-14T21:24:06.212Z,96590.84
2023-05-14T21:26:37.075Z,96592.47
2023-05-14T21:29:05.362Z,96593.47
2023-05-14T21:31:33.672Z,96592.56
2023-05-14T21:34:02.634Z,96589.56
2023-05-14T21:36:31.440Z,96588.91
2023-05-14T21:38:59.801Z,96597.81
2023-05-14T21:41:29.503Z,96587.13
2023-05-14T21:43:57.973Z,96589.50
2023-05-14T21:46:26.380Z,96583.75
2023-05-14T21:48:54.487Z,96590.19
2023-05-14T21:51:22.815Z,96580.91
2023-05-14T21:53:51.416Z,96578.00
2023-05-14T21:56:19.729Z,96577.31
2023-05-14T21:58:49.459Z,96577.16
2023-05-14T22:01:18.065Z,96578.13
2023-05-14T22:03:46.494Z,96573.88
2023-05-14T22:06:15.642Z,96573.09
2023-05-14T22:08:43.832Z,96568.69
2023-05-14T22:11:12.237Z,96562.50
2023-05-14T22:13:41.203Z,96566.19
2023-05-14T22:16:13.769Z,96563.59
2023-05-14T22:18:42.733Z,96560.31
2023-05-14T22:21:10.693Z,96557.56
2023-05-14T22:23:39.489Z,96561.13
2023-05-14T22:26:07.668Z,96559.91
2023-05-14T22:28:36.835Z,96562.81
2023-05-14T22:31:05.604Z,96557.47
2023-05-14T22:33:35.419Z,96551.13
2023-05-14T22:36:03.836Z,96550.16
2023-05-14T22:38:32.452Z,96552.47
2023-05-14T22:41:01.109Z,96544.94
2023-05-14T22:43:30.646Z,96540.31
2023-05-14T22:45:59.021Z,96534.84
2023-05-14T22:48:28.195Z,96539.13
2023-05-14T22:50:58.416Z,96535.13
2023-05-14T22:53:26.757Z,96538.13
2023-05-14T22:55:55.139Z,96538.53
2023-05-14T22:58:23.636Z,96530.72
2023-05-14T23:00:52.111Z,96530.59
2023-05-14T23:03:20.818Z,96533.63
2023-05-14T23:05:49.466Z,96529.31
2023-05-14T23:08:19.182Z,96523.97
2023-05-14T23:10:47.613Z,96518.75
2023-05-14T23:13:15.754Z,96515.19
2023-05-14T23:15:45.333Z,96510.41
2023-05-14T23:18:14.128Z,96509.06
2023-05-14T23:20:42.702Z,96508.75
2023-05-14T23:23:10.917Z,96502.22
2023-05-14T23:25:42.116Z,96501.63
2023-05-14T23:28:10.909Z,96500.16
2023-05-14T23:30:39.152Z,96492.84
2023-05-14T23:33:07.409Z,96496.13
2023-05-14T23:35:37.058Z,96495.84
2023-05-14T23:38:05.736Z,96492.28
2023-05-14T23:40:34.443Z,96491.59
2023-05-14T23:43:03.942Z,96485.72
2023-05-14T23:45:33.209Z,96479.00
2023-05-14T23:48:03.101Z,96463.22
2023-05-14T23:50:31.795Z,96469.53
2023-05-14T23:53:00.322Z,96468.16
2023-05-14T23:55:28.987Z,96459.66
2023-05-14T23:57:57.391Z,96452.94
